Emery, Iowa
Current Conditions -  °F | °C
As of 8:53 AM on Wednesday 22 Oct 2014 (Local Time) from KMCW Reporting Station
Broken Clouds Broken Clouds  
Wind Chill: 33°   Ceiling: 5500
Heat Index: 41°   Visibility: 7mi
Dew Point: 38°   Wind: 15mph
Humidity: 89%   Direction: 150°SSE
Pressure: 30.24"   Gusts: 24mph
Location:  43.1451°N, 93.1385°W
Report Text: KMCW 221353Z AUTO 15013G21KT 7SM BKN055 05/03 A3024 RMK AO2 SLP244 T00500033
Loading
Personal Weather Stations






























Interactive Weather Map
Tropical Storm Tracking
New forecast layout! Learn more

10-Day Weather Forecast

Advertisements
Track Severe Weather on mobile